Flight Track Log - Related Links

Times and Time Zones

All times are in EDT time to prevent confusion due to time zone crossing. See the N244A flight status page for this flight to view local times or setup timezone preferences in your user account.

Time Position Orientation Groundspeed Altitude Reporting Facility
EDT Latitude Longitude Course Direction KTS MPH feet Rate Location/Type
Thu 07:54:38 AM 26.7569 -79.9928 334° Northwest 256 295 5,700  Level Miami Center
Thu 07:55:38 AM 26.8125 -80.0314 328° Northwest 256 295 7,700 2,300 Climbing Miami Center
Thu 07:56:38 AM 26.8358 -80.1136 288° West 261 300 10,300 2,100 Climbing Miami Center
Thu 07:57:38 AM 26.8458 -80.2233 276° West 302 348 11,900 950 Climbing Miami Center
Thu 07:58:00 AM 27.2862 -79.8178 326° Northwest  Level Estimated
Thu 07:58:38 AM 26.8744 -80.3311 287° West 347 399 12,200  Level Miami Center
Thu 07:59:00 AM 27.3866 -79.7712 334° Northwest  Level Estimated
Thu 07:59:38 AM 26.9369 -80.4239 307° West 371 427 14,500  Level Miami Center
Thu 08:00:38 AM 27.0169 -80.4847 326° Northwest 380 437 16,600 2,050 Climbing Miami Center
Thu 08:01:38 AM 27.1136 -80.5414 332° Northwest 380 437 18,600 1,700 Climbing Miami Center
Thu 08:02:38 AM 27.2125 -80.5911 336° Northwest 380 437 20,000 1,700 Climbing Miami Center
Thu 08:03:38 AM 27.3114 -80.6481 333° Northwest 391 450 22,000 1,600 Climbing Miami Center
Thu 08:04:38 AM 27.4142 -80.7053 334° Northwest 396 456 23,200 1,000 Climbing Miami Center
Thu 08:05:38 AM 27.5233 -80.7581 337° Northwest 409 471 24,000 1,350 Climbing Miami Center
Thu 08:06:38 AM 27.6325 -80.8133 336° Northwest 425 489 25,900 1,400 Climbing Miami Center
Thu 08:07:38 AM 27.7392 -80.8806 331° Northwest 425 489 26,800 1,200 Climbing Miami Center
Thu 08:08:38 AM 27.8461 -80.9453 332° Northwest 431 496 28,300 1,450 Climbing Miami Center
Thu 08:09:38 AM 27.9550 -81.0008 336° Northwest 426 490 29,700 1,450 Climbing Miami Center
Thu 08:10:38 AM 28.0692 -81.0239 350° North 417 480 31,200 1,750 Climbing Miami Center
Thu 08:11:38 AM 28.1811 -81.0444 351° North 412 474 33,200 1,400 Climbing Miami Center
Thu 08:12:38 AM 28.2869 -81.0672 349° North 400 460 34,000 600 Climbing Miami Center
Thu 08:13:38 AM 28.3989 -81.0928 349° North 400 460 34,400 976 Climbing Miami Center
Thu 08:14:41 AM 28.5153 -81.1183 349° North 408 470 36,000 1,610 Climbing Jacksonville Center
Thu 08:15:41 AM 28.6181 -81.1425 348° North 403 464 37,700 1,050 Climbing Jacksonville Center
Thu 08:16:41 AM 28.7183 -81.1644 349° North 384 442 38,100 550 Climbing Jacksonville Center
Thu 08:17:41 AM 28.8211 -81.1839 351° North 371 427 38,800 400 Climbing Jacksonville Center
Thu 08:18:41 AM 28.9236 -81.2036 350° North 371 427 38,900 100 Climbing Jacksonville Center
Thu 08:19:41 AM 29.0281 -81.2256 350° North 376 433 39,000 50 Climbing Jacksonville Center
Thu 08:20:41 AM 29.1369 -81.2497 349° North 381 438 39,000  Level Jacksonville Center
Thu 08:21:41 AM 29.2478 -81.2719 350° North 387 445 39,000  Level Jacksonville Center
Thu 08:22:41 AM 29.3608 -81.2961 349° North 400 460 39,000  Level Jacksonville Center
Thu 08:23:41 AM 29.4719 -81.3231 348° North 405 466 39,000  Level Jacksonville Center
Thu 08:24:41 AM 29.5911 -81.3472 350° North 405 466 39,000  Level Jacksonville Center
Thu 08:25:41 AM 29.7022 -81.3742 348° North 405 466 39,000  Level Jacksonville Center
Thu 08:26:41 AM 29.8153 -81.3964 350° North 405 466 39,000  Level Jacksonville Center
Thu 08:27:41 AM 29.9261 -81.4186 350° North 405 466 39,000  Level Jacksonville Center
Thu 08:28:41 AM 30.0392 -81.4458 348° North 405 466 39,000  Level Jacksonville Center
Thu 08:29:41 AM 30.1500 -81.4681 350° North 405 466 39,000  Level Jacksonville Center
Thu 08:30:41 AM 30.2650 -81.4928 349° North 410 472 39,000  Level Jacksonville Center
Thu 08:31:41 AM 30.3800 -81.4936 360° North 410 472 39,000  Level Jacksonville Center
Thu 08:32:41 AM 30.4964 -81.4558 16° North 410 472 39,000  Level Jacksonville Center
Thu 08:33:41 AM 30.6108 -81.4203 15° North 415 478 39,000  Level Jacksonville Center
Thu 08:34:41 AM 30.7169 -81.3822 17° North 425 489 39,000  Level Jacksonville Center
Thu 08:35:41 AM 30.8272 -81.3442 17° North 425 489 39,000  Level Jacksonville Center
Thu 08:36:41 AM 30.9436 -81.3061 16° North 425 489 39,000  Level Jacksonville Center
Thu 08:37:41 AM 31.0578 -81.2678 16° North 425 489 39,000  Level Jacksonville Center
Thu 08:38:41 AM 31.1722 -81.2294 16° North 420 483 39,000  Level Jacksonville Center
Thu 08:39:41 AM 31.2844 -81.1908 16° North 420 483 39,000  Level Jacksonville Center
Thu 08:40:41 AM 31.4025 -81.1206 27° Northeast 420 483 39,000  Level Jacksonville Center
Thu 08:41:41 AM 31.4956 -81.0531 32° Northeast 442 509 39,000  Level Jacksonville Center
Thu 08:42:41 AM 31.6133 -80.9703 31° Northeast 442 509 39,000  Level Jacksonville Center
Thu 08:43:41 AM 31.7167 -80.8972 31° Northeast 442 509 39,000  Level Jacksonville Center
Thu 08:44:41 AM 31.8114 -80.8267 32° Northeast 437 503 39,000  Level Jacksonville Center
Thu 08:45:41 AM 31.9269 -80.7433 31° Northeast 437 503 39,000  Level Jacksonville Center
Thu 08:46:41 AM 32.0197 -80.6775 31° Northeast 437 503 39,000  Level Jacksonville Center
Thu 08:47:41 AM 32.1372 -80.5936 31° Northeast 437 503 39,000 -50 Level Jacksonville Center
Thu 08:48:41 AM 32.2383 -80.5200 32° Northeast 437 503 38,900 -50 Descending Jacksonville Center
Thu 08:49:41 AM 32.3433 -80.4433 32° Northeast 437 503 38,900 50 Level Jacksonville Center
Thu 08:50:41 AM 32.4503 -80.3642 32° Northeast 437 503 39,000  Climbing Jacksonville Center
Thu 08:51:41 AM 32.5531 -80.2900 31° Northeast 437 503 38,900 -50 Descending Jacksonville Center
Thu 08:52:41 AM 32.6558 -80.2131 32° Northeast 437 503 38,900  Level Jacksonville Center
Thu 08:53:41 AM 32.7586 -80.1358 32° Northeast 437 503 38,900  Level Jacksonville Center
Thu 08:54:41 AM 32.8653 -80.0533 33° Northeast 442 509 38,900  Level Jacksonville Center
Thu 08:55:41 AM 32.9697 -79.9683 34° Northeast 448 516 38,900  Level Jacksonville Center
Thu 08:56:41 AM 33.0575 -79.8789 40° Northeast 462 532 38,900  Level Jacksonville Center
Thu 08:57:41 AM 33.1553 -79.7836 39° Northeast 462 532 38,900  Level Jacksonville Center
Thu 08:58:41 AM 33.2553 -79.6858 39° Northeast 457 526 38,900  Level Jacksonville Center
Thu 08:59:41 AM 33.3528 -79.5903 39° Northeast 457 526 38,900  Level Jacksonville Center
Thu 09:00:41 AM 33.4528 -79.4969 38° Northeast 457 526 38,900  Level Jacksonville Center
Thu 09:01:41 AM 33.5503 -79.3986 40° Northeast 457 526 38,900  Level Jacksonville Center
Thu 09:02:41 AM 33.6456 -79.3025 40° Northeast 457 526 38,900  Level Jacksonville Center
Thu 09:03:41 AM 33.7408 -79.2111 39° Northeast 452 520 38,900  Level Jacksonville Center
Thu 09:04:41 AM 33.8403 -79.1144 39° Northeast 446 513 38,900  Level Jacksonville Center
Thu 09:06:35 AM 34.0208 -78.9342 40° Northeast 467 537 38,900  Level Washington Center
Thu 09:07:36 AM 34.1194 -78.8378 39° Northeast 462 532 38,900  Level Washington Center
Thu 09:08:34 AM 34.2203 -78.7364 40° Northeast 462 532 38,900  Level Washington Center
Thu 09:09:35 AM 34.3167 -78.6419 39° Northeast 462 532 38,900  Level Washington Center
Thu 09:10:36 AM 34.4150 -78.5425 40° Northeast 462 532 38,900 50 Level Washington Center
Thu 09:11:34 AM 34.5175 -78.4528 36° Northeast 462 532 39,000  Climbing Washington Center
Thu 09:12:35 AM 34.6194 -78.3756 32° Northeast 449 517 38,900 -50 Descending Washington Center
Thu 09:13:35 AM 34.7233 -78.2933 33° Northeast 442 509 38,900 50 Level Washington Center
Thu 09:14:35 AM 34.8342 -78.1933 37° Northeast 447 514 39,000 50 Climbing Washington Center
Thu 09:15:36 AM 34.9383 -78.1078 34° Northeast 447 514 39,000  Level Washington Center
Thu 09:16:37 AM 35.0422 -78.0247 33° Northeast 452 520 39,000  Level Washington Center
Thu 09:17:34 AM 35.1483 -77.9367 34° Northeast 452 520 39,000  Level Washington Center
Thu 09:18:35 AM 35.2542 -77.8533 33° Northeast 452 520 39,000  Level Washington Center
Thu 09:19:35 AM 35.3603 -77.7644 34° Northeast 452 520 39,000  Level Washington Center
Thu 09:20:36 AM 35.4639 -77.6806 33° Northeast 447 514 39,000  Level Washington Center
Thu 09:21:36 AM 35.5719 -77.5942 33° Northeast 447 514 39,000  Level Washington Center
Thu 09:22:34 AM 35.6775 -77.5072 34° Northeast 447 514 39,000  Level Washington Center
Thu 09:23:35 AM 35.7833 -77.4203 34° Northeast 447 514 39,000  Level Washington Center
Thu 09:24:36 AM 35.8889 -77.3328 34° Northeast 447 514 39,000  Level Washington Center
Thu 09:25:36 AM 35.9944 -77.2428 35° Northeast 447 514 39,000  Level Washington Center
Thu 09:26:34 AM 36.1000 -77.1575 33° Northeast 447 514 39,000 -51 Level Washington Center
Thu 09:27:34 AM 36.1992 -77.0719 35° Northeast 442 509 38,900  Descending Washington Center
Thu 09:28:35 AM 36.3044 -76.9839 34° Northeast 442 509 39,000  Climbing Washington Center
Thu 09:29:36 AM 36.4119 -76.8953 34° Northeast 449 517 38,900 -49 Descending Washington Center
Thu 09:30:37 AM 36.5172 -76.8067 34° Northeast 449 517 38,900  Level Washington Center
Thu 09:31:34 AM 36.6222 -76.7150 35° Northeast 449 517 38,900 50 Level Washington Center
Thu 09:32:36 AM 36.7275 -76.6258 34° Northeast 449 517 39,000 50 Climbing Washington Center
Thu 09:33:34 AM 36.8303 -76.5364 35° Northeast 449 517 39,000  Level Washington Center
Thu 09:34:35 AM 36.9250 -76.4519 35° Northeast 454 522 39,000  Level Washington Center
Thu 09:35:35 AM 37.0297 -76.3594 35° Northeast 454 522 39,000  Level Washington Center
Thu 09:36:36 AM 37.1347 -76.2692 34° Northeast 454 522 39,000  Level Washington Center
Thu 09:37:36 AM 37.2414 -76.1789 34° Northeast 459 528 39,000 -51 Level Washington Center
Thu 09:38:34 AM 37.3608 -76.0831 33° Northeast 459 528 38,900  Descending Washington Center
Thu 09:39:35 AM 37.4656 -75.9894 35° Northeast 459 528 39,000  Climbing Washington Center
Thu 09:40:36 AM 37.5722 -75.9011 33° Northeast 454 522 38,900 -50 Descending Washington Center
Thu 09:41:34 AM 37.6767 -75.8044 36° Northeast 454 522 38,900 50 Level Washington Center
Thu 09:42:35 AM 37.7831 -75.7128 34° Northeast 454 522 39,000  Climbing Washington Center
Thu 09:43:35 AM 37.8894 -75.6208 34° Northeast 454 522 38,900  Descending Washington Center
Thu 09:44:37 AM 37.9708 -75.5444 36° Northeast 454 522 39,000  Climbing Washington Center
Thu 09:45:34 AM 38.0981 -75.4361 34° Northeast 454 522 38,900 -51 Descending Washington Center
Thu 09:46:35 AM 38.1939 -75.3778 26° Northeast 444 511 38,900  Level Washington Center
Thu 09:47:36 AM 38.3144 -75.3033 26° Northeast 433 498 38,900  Level Washington Center
Thu 09:48:36 AM 38.4250 -75.2339 26° Northeast 433 498 38,900  Level Washington Center
Thu 09:49:34 AM 38.5350 -75.1617 27° Northeast 433 498 38,900  Level Washington Center
Thu 09:50:35 AM 38.6433 -75.0919 27° Northeast 428 493 38,900  Level Washington Center
Thu 09:51:35 AM 38.7514 -75.0086 31° Northeast 433 498 38,900 50 Level Washington Center
Thu 09:52:36 AM 38.8486 -74.8961 42° Northeast 452 520 39,000 50 Climbing Washington Center
Thu 09:53:34 AM 38.9439 -74.7803 43° Northeast 457 526 39,000  Level Washington Center
Thu 09:54:36 AM 39.0367 -74.6669 43° Northeast 457 526 39,000 -49 Level Washington Center
Thu 09:55:36 AM 39.1297 -74.5533 43° Northeast 457 526 38,900 -51 Descending Washington Center
Thu 09:56:33 AM 39.2267 -74.4422 42° Northeast 457 526 38,900  Level Washington Center
Thu 09:57:35 AM 39.3192 -74.3281 44° Northeast 457 526 38,900  Level Washington Center
Thu 09:58:35 AM 39.4158 -74.2108 43° Northeast 468 539 38,900  Level Washington Center
Thu 10:01:00 AM 39.6347 -73.9383 44° Northeast 468 539 38,900 29 Level Boston Center
Thu 10:02:03 AM 39.7269 -73.8236 44° Northeast 464 534 39,000  Climbing Boston Center
Thu 10:03:02 AM 39.8208 -73.7083 43° Northeast 466 536 38,900 -150 Descending Boston Center
Thu 10:04:03 AM 39.9136 -73.5908 44° Northeast 469 540 38,700 -878 Descending Boston Center
Thu 10:05:05 AM 40.0203 -73.4586 43° Northeast 479 551 37,100 -1,419 Descending Boston Center
Thu 10:07:09 AM 40.2250 -73.2156 42° Northeast 476 548 34,300 -1,272 Descending Boston Center
Thu 10:08:09 AM 40.3350 -73.1253 32° Northeast 469 540 33,200 -1,091 Descending Boston Center
Thu 10:09:10 AM 40.4425 -73.0294 34° Northeast 470 541 32,100 -1,317 Descending Boston Center
Thu 10:10:12 AM 40.5511 -72.9272 36° Northeast 480 552 30,500 -1,721 Descending Boston Center
Thu 10:11:12 AM 40.6619 -72.8267 35° Northeast 485 558 28,600 -1,935 Descending Boston Center
Thu 10:12:16 AM 40.7831 -72.7181 34° Northeast 487 560 26,500 -1,984 Descending Boston Center
Thu 10:13:16 AM 40.8983 -72.6144 34° Northeast 499 574 24,500 -1,934 Descending Boston Center
Thu 10:14:17 AM 41.0094 -72.5058 36° Northeast 496 571 22,600 -1,869 Descending Boston Center
Thu 10:15:18 AM 41.1211 -72.4053 34° Northeast 487 560 20,700 -1,790 Descending Boston Center
Thu 10:16:21 AM 41.2433 -72.2911 35° Northeast 472 543 18,900 -823 Descending Boston Center
Thu 10:17:22 AM 41.3542 -72.2275 23° Northeast 415 478 19,000 -149 Climbing Boston Center
Thu 10:18:22 AM 41.4611 -72.2044 North 394 453 18,600 -690 Descending Boston Center
Thu 10:18:49 AM 41.5094 -72.1939 North 398 458 18,000 -1,279 Descending Boston Center
Thu 10:19:23 AM 41.5717 -72.1761 12° North 404 465 17,300 -1,964 Descending Boston Center
Thu 10:19:44 AM 41.6122 -72.1639 13° North 413 475 16,200 -2,286 Descending Boston Center
Thu 10:20:26 AM 41.6844 -72.1422 13° North 413 475 14,900 -2,250 Descending Boston Center
Thu 10:20:32 AM 41.6994 -72.1367 15° North 411 473 14,400 -2,557 Descending Boston Center
Thu 10:21:27 AM 41.7997 -72.1097 11° North 396 456 12,300 -2,262 Descending Boston Center
Thu 10:21:33 AM 41.8064 -72.1078 12° North 387 445 12,100 -1,475 Descending Boston Center
Thu 10:22:28 AM 41.8989 -72.0839 11° North 378 435 10,800 -1,574 Descending Boston Center
Thu 10:22:34 AM 41.9086 -72.0803 15° North 362 417 10,500 -1,322 Descending Boston Center
Thu 10:23:27 AM 41.9992 -72.0572 11° North 343 395 9,500 -1,220 Descending Boston Center
Thu 10:23:33 AM 42.0039 -72.0556 15° North 318 366 9,300 -1,313 Descending Boston Center
Thu 10:24:31 AM 42.0739 -72.0119 25° Northeast 302 348 8,100 -1,279 Descending Boston Center
Thu 10:24:34 AM 42.0781 -72.0064 45° Northeast 305 351 8,000 -1,300 Descending Boston Center
Thu 10:25:31 AM 42.1244 -71.9228 53° Northeast 303 349 6,800 -1,300 Descending Boston Center
Thu 10:25:34 AM 42.1261 -71.9133 77° East 306 352 6,700 -1,180 Descending Boston Center
Thu 10:26:32 AM 42.1669 -71.8219 59° Northeast 297 342 5,600 -814 Descending Boston Center
Thu 10:27:32 AM 42.2356 -71.7792 25° Northeast 273 314 5,100 -242 Descending Boston Center
Thu 10:28:36 AM 42.3014 -71.7581 13° North 246 283 5,100 -48 Level Boston Center
Thu 10:29:37 AM 42.3667 -71.7003 33° Northeast 276 318 5,000 -694 Descending Boston Center
Thu 10:30:37 AM 42.4336 -71.6253 40° Northeast 294 338 3,700 -1,024 Descending Boston Center
Thu 10:31:40 AM 42.4892 -71.5594 41° Northeast 266 306 2,900 -677 Descending Boston Center
Thu 10:32:41 AM 42.5125 -71.4806 68° East 229 264 2,300 -381 Descending Boston Center
Thu 10:33:46 AM 42.5167 -71.4000 86° East 189 217 2,100 -88 Descending KA90
Thu 10:34:58 AM 42.5667 -71.4000 360° North 192 221 2,100  Level KA90
Thu 10:35:52 AM 42.5667 -71.4500 270° West 181 208 2,100  Level KA90
Thu 10:37:04 AM 42.5500 -71.5167 251° West 161 185 2,100  Level KA90
Thu 10:37:52 AM 42.5333 -71.5500 236° Southwest 154 177 2,100  Level KA90
Thu 10:38:52 AM 42.5000 -71.5000 132° Southeast 189 217 2,100  Level KA90
Thu 10:40:04 AM 42.4833 -71.4333 109° East 177 204 2,100  Level KA90
Thu 10:40:58 AM 42.5000 -71.3833 66° East 210 242 2,100  Level KA90
Thu 10:41:58 AM 42.5500 -71.3667 14° North 212 244 2,100  Level KA90
Thu 10:42:58 AM 42.5833 -71.4167 312° West 181 208 2,100  Level KA90
Thu 10:43:46 AM 42.5833 -71.4833 270° West 183 211 2,100  Level KA90
Thu 10:44:52 AM 42.5833 -71.5333 270° West 158 182 2,100  Level KA90
Thu 10:45:46 AM 42.5500 -71.5667 216° Southwest 158 182 2,100  Level KA90
Thu 10:46:52 AM 42.5000 -71.5333 154° Southeast 193 222 2,100  Level KA90
Thu 10:47:52 AM 42.4833 -71.4500 105° East 183 211 2,100 -200 Level KA90
Thu 10:48:52 AM 42.4833 -71.4000 90° East 161 185 1,700 -600 Descending KA90
Thu 10:49:52 AM 42.4833 -71.3333 90° East 161 185 900 -800 Descending KA90

Login

Don't have an account? Register now (free) for customized features, flight alerts, and more!